createdAt,value
2019-05-29T00:08:14.752Z,0.0
2019-05-29T00:18:26.155Z,0.0
2019-05-29T00:29:15.595Z,0.0
2019-05-29T00:39:29.156Z,0.0
2019-05-29T00:49:43.475Z,0.0
2019-05-29T01:00:32.865Z,0.0
2019-05-29T01:11:27.250Z,0.0
2019-05-29T01:22:18.690Z,0.0
2019-05-29T01:32:30.151Z,0.0
2019-05-29T01:42:45.763Z,0.0
2019-05-29T01:52:57.771Z,0.0
2019-05-29T02:03:13.958Z,0.0
2019-05-29T02:13:28.017Z,0.0
2019-05-29T02:24:19.216Z,0.0
2019-05-29T02:35:08.458Z,0.0
2019-05-29T02:45:55.355Z,4.0
2019-05-29T02:56:42.601Z,12.0
2019-05-29T03:06:57.340Z,48.0
2019-05-29T03:17:12.857Z,144.0
2019-05-29T03:27:59.478Z,328.0
2019-05-29T03:38:46.543Z,584.0
2019-05-29T03:49:33.180Z,872.0
2019-05-29T03:59:48.679Z,1160.0
2019-05-29T04:10:34.856Z,1444.0
2019-05-29T04:20:48.585Z,1692.0
2019-05-29T04:31:38.423Z,1924.0
2019-05-29T04:42:24.164Z,2156.0
2019-05-29T04:53:09.308Z,2356.0
2019-05-29T05:03:26.488Z,2552.0
2019-05-29T05:14:13.431Z,2744.0
2019-05-29T05:24:58.500Z,2924.0
2019-05-29T05:35:44.301Z,3124.0
2019-05-29T05:46:30.850Z,3332.0
2019-05-29T05:56:47.257Z,3564.0
2019-05-29T06:07:34.312Z,3804.0
2019-05-29T06:18:04.701Z,4068.0
2019-05-29T06:28:37.091Z,4496.0
2019-05-29T06:38:47.687Z,4788.0
2019-05-29T06:49:33.914Z,6408.0
2019-05-29T06:59:44.740Z,6432.0
2019-05-29T07:09:58.011Z,6776.0
2019-05-29T07:20:11.982Z,7376.0
2019-05-29T07:30:25.634Z,8208.0
2019-05-29T07:40:38.435Z,9108.0
2019-05-29T07:51:22.657Z,12552.0
2019-05-29T08:01:36.627Z,15072.0
2019-05-29T08:12:23.461Z,19232.0
2019-05-29T08:23:08.665Z,22048.0
2019-05-29T08:33:55.958Z,24576.0
2019-05-29T08:44:10.948Z,24800.0
2019-05-29T08:54:24.564Z,28672.0
2019-05-29T09:04:38.318Z,30400.0
2019-05-29T09:14:57.446Z,32864.0
2019-05-29T09:25:44.746Z,37120.0
2019-05-29T09:36:30.187Z,39584.0
2019-05-29T09:47:19.029Z,41600.0
2019-05-29T10:02:09.233Z,44064.0
2019-05-29T10:12:22.238Z,45184.0
2019-05-29T10:23:08.725Z,11060.0
2019-05-29T10:33:22.507Z,10756.0
2019-05-29T10:44:13.993Z,11024.0
2019-05-29T10:54:27.504Z,12396.0
2019-05-29T11:05:16.285Z,42016.0
2019-05-29T11:15:31.354Z,29408.0
2019-05-29T11:25:45.289Z,51136.0
2019-05-29T11:36:09.181Z,52800.0
2019-05-29T11:46:50.071Z,52512.0
2019-05-29T11:57:42.356Z,51168.0
2019-05-29T12:08:31.780Z,48800.0
2019-05-29T12:19:24.324Z,44160.0
2019-05-29T12:30:12.721Z,42784.0
2019-05-29T12:45:57.602Z,44384.0
2019-05-29T12:56:45.167Z,44064.0
2019-05-29T13:07:35.095Z,42752.0
2019-05-29T13:18:22.698Z,37472.0
2019-05-29T13:28:36.139Z,16960.0
2019-05-29T13:38:52.417Z,28736.0
2019-05-29T13:49:39.480Z,37088.0
2019-05-29T13:59:54.790Z,21216.0
2019-05-29T14:10:11.047Z,7276.0
2019-05-29T14:20:24.802Z,19648.0
2019-05-29T14:30:41.261Z,17440.0
2019-05-29T14:41:28.524Z,9332.0
2019-05-29T14:52:13.600Z,10172.0
2019-05-29T15:03:03.334Z,8444.0
2019-05-29T15:13:15.309Z,7648.0
2019-05-29T15:23:27.147Z,6824.0
2019-05-29T15:33:41.980Z,6608.0
2019-05-29T15:43:55.092Z,6300.0
2019-05-29T15:55:28.263Z,6208.0
2019-05-29T16:06:09.778Z,5964.0
2019-05-29T16:16:26.343Z,5876.0
2019-05-29T16:26:46.217Z,4212.0
2019-05-29T16:37:02.231Z,5516.0
2019-05-29T16:47:18.630Z,5576.0
2019-05-29T16:58:02.784Z,5412.0
2019-05-29T17:08:48.335Z,4980.0
2019-05-29T17:19:32.868Z,4844.0
2019-05-29T17:29:48.358Z,4404.0
2019-05-29T17:40:03.521Z,4020.0
2019-05-29T17:50:52.468Z,3532.0
2019-05-29T18:01:39.315Z,3132.0
2019-05-29T18:11:56.348Z,2744.0
2019-05-29T18:22:11.695Z,2060.0
2019-05-29T18:36:03.238Z,1676.0
2019-05-29T18:46:52.069Z,1356.0
2019-05-29T18:57:15.332Z,1016.0
2019-05-29T19:07:55.300Z,752.0
2019-05-29T19:18:41.933Z,480.0
2019-05-29T19:28:59.383Z,272.0
2019-05-29T19:39:13.351Z,136.0
2019-05-29T19:50:02.404Z,48.0
2019-05-29T20:00:17.903Z,16.0
2019-05-29T20:10:35.464Z,4.0
2019-05-29T20:21:22.927Z,0.0
2019-05-29T20:31:38.694Z,0.0
2019-05-29T20:42:27.033Z,0.0
2019-05-29T20:53:13.865Z,0.0
2019-05-29T21:04:14.859Z,0.0
2019-05-29T21:18:11.364Z,0.0
2019-05-29T21:28:39.024Z,0.0
2019-05-29T21:38:36.632Z,0.0
2019-05-29T21:49:31.331Z,0.0
2019-05-29T21:59:45.964Z,0.0
2019-05-29T22:10:30.756Z,0.0
2019-05-29T22:21:17.109Z,0.0
2019-05-29T22:31:34.839Z,0.0
2019-05-29T22:42:19.807Z,0.0
2019-05-29T22:52:34.631Z,0.0
2019-05-29T23:03:22.029Z,0.0
2019-05-29T23:14:09.384Z,0.0
2019-05-29T23:24:24.704Z,0.0
2019-05-29T23:34:39.651Z,0.0
2019-05-29T23:44:52.072Z,0.0
2019-05-29T23:55:39.219Z,0.0
